Air Navigation Services of Czech Republic
Airport: LKCV Updated:  23.09.2018 23:01:06  UTC
 METAR LKCV 23.09. 23:00 ...
METAR LKCV 232300Z 31024G37KT 9999 SCT019 OVC026 11/07 Q1010 NOSIG RMK BLU BLU=
 TAF LKCV 23.09. 17:00 COR
TAF COR LKCV 231700Z 2318/2418 19012KT 9999 BKN030      TEMPO 2318/2320 17015KT      TEMPO 2319/2405 4000 RA BKN008 BKN020      BECMG 2319/2322 31018G33KT      PROB40 TEMPO 2319/2323 31020G45KT 3000 TSRA BKN020CB      PROB30 TEMPO 2409/2415 SHRA BKN030TCU=